sensor_id;sensor_type;location;lat;lon;timestamp;P1;durP1;ratioP1;P2;durP2;ratioP2
25752;SDS011;13600;50.816;4.416;2022-11-20T00:00:10;80.03;;;40.60;;
25752;SDS011;13600;50.816;4.416;2022-11-20T00:02:36;84.05;;;40.70;;
25752;SDS011;13600;50.816;4.416;2022-11-20T00:05:02;79.60;;;39.55;;
25752;SDS011;13600;50.816;4.416;2022-11-20T00:07:28;80.47;;;40.45;;
25752;SDS011;13600;50.816;4.416;2022-11-20T00:09:54;77.45;;;39.75;;
25752;SDS011;13600;50.816;4.416;2022-11-20T00:12:20;80.45;;;40.67;;
25752;SDS011;13600;50.816;4.416;2022-11-20T00:14:45;75.95;;;39.03;;
25752;SDS011;13600;50.816;4.416;2022-11-20T00:17:11;74.20;;;38.28;;
25752;SDS011;13600;50.816;4.416;2022-11-20T00:19:36;74.35;;;37.88;;
25752;SDS011;13600;50.816;4.416;2022-11-20T00:22:02;77.53;;;40.85;;
25752;SDS011;13600;50.816;4.416;2022-11-20T00:24:28;74.80;;;38.42;;
25752;SDS011;13600;50.816;4.416;2022-11-20T00:26:53;79.18;;;41.00;;
25752;SDS011;13600;50.816;4.416;2022-11-20T00:29:19;75.82;;;38.70;;
25752;SDS011;13600;50.816;4.416;2022-11-20T00:31:45;81.05;;;40.13;;
25752;SDS011;13600;50.816;4.416;2022-11-20T00:34:10;82.07;;;41.35;;
25752;SDS011;13600;50.816;4.416;2022-11-20T00:36:36;87.13;;;42.35;;
25752;SDS011;13600;50.816;4.416;2022-11-20T00:39:02;83.80;;;42.15;;
25752;SDS011;13600;50.816;4.416;2022-11-20T00:41:28;83.85;;;40.00;;
25752;SDS011;13600;50.816;4.416;2022-11-20T00:43:54;77.68;;;39.58;;
25752;SDS011;13600;50.816;4.416;2022-11-20T00:46:21;70.65;;;37.75;;
25752;SDS011;13600;50.816;4.416;2022-11-20T00:48:49;70.82;;;37.80;;
25752;SDS011;13600;50.816;4.416;2022-11-20T00:51:15;74.60;;;37.63;;
25752;SDS011;13600;50.816;4.416;2022-11-20T00:53:42;72.05;;;38.10;;
25752;SDS011;13600;50.816;4.416;2022-11-20T00:56:12;76.28;;;38.10;;
25752;SDS011;13600;50.816;4.416;2022-11-20T00:58:40;71.20;;;38.35;;
25752;SDS011;13600;50.816;4.416;2022-11-20T01:01:10;65.13;;;36.30;;
25752;SDS011;13600;50.816;4.416;2022-11-20T01:03:42;73.43;;;38.45;;
25752;SDS011;13600;50.816;4.416;2022-11-20T01:06:10;79.95;;;37.90;;
25752;SDS011;13600;50.816;4.416;2022-11-20T01:08:57;75.03;;;38.28;;
25752;SDS011;13600;50.816;4.416;2022-11-20T01:11:28;75.85;;;38.58;;
25752;SDS011;13600;50.816;4.416;2022-11-20T01:13:56;76.90;;;37.30;;
25752;SDS011;13600;50.816;4.416;2022-11-20T01:16:31;74.93;;;39.95;;
25752;SDS011;13600;50.816;4.416;2022-11-20T01:19:02;75.32;;;39.55;;
25752;SDS011;13600;50.816;4.416;2022-11-20T01:21:32;72.00;;;36.35;;
25752;SDS011;13600;50.816;4.416;2022-11-20T01:24:00;69.90;;;37.25;;
25752;SDS011;13600;50.816;4.416;2022-11-20T01:26:27;72.97;;;37.53;;
25752;SDS011;13600;50.816;4.416;2022-11-20T01:28:56;71.03;;;36.35;;
25752;SDS011;13600;50.816;4.416;2022-11-20T01:31:26;68.28;;;37.53;;
25752;SDS011;13600;50.816;4.416;2022-11-20T01:33:55;71.47;;;37.38;;
25752;SDS011;13600;50.816;4.416;2022-11-20T01:36:23;70.18;;;36.03;;
25752;SDS011;13600;50.816;4.416;2022-11-20T01:38:53;70.00;;;37.40;;
25752;SDS011;13600;50.816;4.416;2022-11-20T01:41:20;70.22;;;37.22;;
25752;SDS011;13600;50.816;4.416;2022-11-20T01:47:19;78.75;;;37.45;;
25752;SDS011;13600;50.816;4.416;2022-11-20T01:49:52;82.68;;;37.38;;
25752;SDS011;13600;50.816;4.416;2022-11-20T01:52:36;72.43;;;38.42;;
25752;SDS011;13600;50.816;4.416;2022-11-20T01:57:38;77.10;;;39.50;;
25752;SDS011;13600;50.816;4.416;2022-11-20T02:00:06;72.47;;;36.95;;
25752;SDS011;13600;50.816;4.416;2022-11-20T02:02:34;72.68;;;36.50;;
25752;SDS011;13600;50.816;4.416;2022-11-20T02:05:02;69.40;;;36.80;;
25752;SDS011;13600;50.816;4.416;2022-11-20T02:07:37;76.47;;;38.60;;
25752;SDS011;13600;50.816;4.416;2022-11-20T02:10:03;82.32;;;39.65;;
25752;SDS011;13600;50.816;4.416;2022-11-20T02:12:29;73.97;;;38.38;;
25752;SDS011;13600;50.816;4.416;2022-11-20T02:15:13;72.38;;;37.40;;
25752;SDS011;13600;50.816;4.416;2022-11-20T02:17:39;73.45;;;38.30;;
25752;SDS011;13600;50.816;4.416;2022-11-20T02:20:05;77.20;;;38.33;;
25752;SDS011;13600;50.816;4.416;2022-11-20T02:22:34;74.95;;;38.80;;
25752;SDS011;13600;50.816;4.416;2022-11-20T02:25:06;83.45;;;39.60;;
25752;SDS011;13600;50.816;4.416;2022-11-20T02:27:32;79.65;;;39.78;;
25752;SDS011;13600;50.816;4.416;2022-11-20T02:30:03;82.05;;;40.65;;
25752;SDS011;13600;50.816;4.416;2022-11-20T02:32:33;79.40;;;37.83;;
25752;SDS011;13600;50.816;4.416;2022-11-20T02:37:56;81.43;;;36.40;;
25752;SDS011;13600;50.816;4.416;2022-11-20T02:40:24;81.35;;;37.05;;
25752;SDS011;13600;50.816;4.416;2022-11-20T02:42:53;87.53;;;38.17;;
25752;SDS011;13600;50.816;4.416;2022-11-20T02:45:20;78.35;;;35.78;;
25752;SDS011;13600;50.816;4.416;2022-11-20T02:47:46;70.93;;;34.97;;
25752;SDS011;13600;50.816;4.416;2022-11-20T02:50:11;75.28;;;34.95;;
25752;SDS011;13600;50.816;4.416;2022-11-20T02:52:37;78.28;;;36.30;;
25752;SDS011;13600;50.816;4.416;2022-11-20T02:55:03;85.40;;;37.30;;
25752;SDS011;13600;50.816;4.416;2022-11-20T02:57:29;79.30;;;34.70;;
25752;SDS011;13600;50.816;4.416;2022-11-20T02:59:54;78.68;;;35.05;;
25752;SDS011;13600;50.816;4.416;2022-11-20T03:02:20;72.65;;;34.60;;
25752;SDS011;13600;50.816;4.416;2022-11-20T03:04:46;68.78;;;32.95;;
25752;SDS011;13600;50.816;4.416;2022-11-20T03:07:12;71.47;;;32.85;;
25752;SDS011;13600;50.816;4.416;2022-11-20T03:09:37;68.32;;;31.40;;
25752;SDS011;13600;50.816;4.416;2022-11-20T03:12:03;66.60;;;30.35;;
25752;SDS011;13600;50.816;4.416;2022-11-20T03:14:29;60.92;;;30.50;;
25752;SDS011;13600;50.816;4.416;2022-11-20T03:16:55;64.95;;;30.42;;
25752;SDS011;13600;50.816;4.416;2022-11-20T03:19:21;58.70;;;29.58;;
25752;SDS011;13600;50.816;4.416;2022-11-20T03:21:47;64.35;;;29.83;;
25752;SDS011;13600;50.816;4.416;2022-11-20T03:24:13;63.95;;;29.50;;
25752;SDS011;13600;50.816;4.416;2022-11-20T03:26:39;70.55;;;30.70;;
25752;SDS011;13600;50.816;4.416;2022-11-20T03:29:05;57.17;;;27.13;;
25752;SDS011;13600;50.816;4.416;2022-11-20T03:31:32;66.95;;;28.67;;
25752;SDS011;13600;50.816;4.416;2022-11-20T03:33:59;57.05;;;27.48;;
25752;SDS011;13600;50.816;4.416;2022-11-20T03:36:26;60.30;;;26.58;;
25752;SDS011;13600;50.816;4.416;2022-11-20T03:38:53;61.70;;;27.83;;
25752;SDS011;13600;50.816;4.416;2022-11-20T03:41:21;58.25;;;26.67;;
25752;SDS011;13600;50.816;4.416;2022-11-20T03:46:15;55.17;;;27.58;;
25752;SDS011;13600;50.816;4.416;2022-11-20T03:48:41;59.75;;;28.23;;
25752;SDS011;13600;50.816;4.416;2022-11-20T03:51:14;57.47;;;27.98;;
25752;SDS011;13600;50.816;4.416;2022-11-20T03:53:40;57.40;;;28.13;;
25752;SDS011;13600;50.816;4.416;2022-11-20T03:56:07;57.45;;;28.65;;
25752;SDS011;13600;50.816;4.416;2022-11-20T03:58:34;57.03;;;27.95;;
25752;SDS011;13600;50.816;4.416;2022-11-20T04:01:08;63.13;;;30.13;;
25752;SDS011;13600;50.816;4.416;2022-11-20T04:03:37;61.03;;;29.75;;
25752;SDS011;13600;50.816;4.416;2022-11-20T04:06:04;62.28;;;29.60;;
25752;SDS011;13600;50.816;4.416;2022-11-20T04:08:31;61.15;;;29.67;;
25752;SDS011;13600;50.816;4.416;2022-11-20T04:11:07;65.85;;;31.17;;
25752;SDS011;13600;50.816;4.416;2022-11-20T04:13:37;62.85;;;29.50;;
25752;SDS011;13600;50.816;4.416;2022-11-20T04:16:03;66.93;;;31.38;;
25752;SDS011;13600;50.816;4.416;2022-11-20T04:18:30;70.32;;;31.23;;
25752;SDS011;13600;50.816;4.416;2022-11-20T04:20:56;66.63;;;32.25;;
25752;SDS011;13600;50.816;4.416;2022-11-20T04:23:22;71.88;;;31.15;;
25752;SDS011;13600;50.816;4.416;2022-11-20T04:25:48;71.88;;;32.33;;
25752;SDS011;13600;50.816;4.416;2022-11-20T04:28:14;68.53;;;31.45;;
25752;SDS011;13600;50.816;4.416;2022-11-20T04:30:39;69.40;;;32.10;;
25752;SDS011;13600;50.816;4.416;2022-11-20T04:33:05;71.43;;;31.90;;
25752;SDS011;13600;50.816;4.416;2022-11-20T04:35:33;74.25;;;33.47;;
25752;SDS011;13600;50.816;4.416;2022-11-20T04:37:59;73.80;;;32.70;;
25752;SDS011;13600;50.816;4.416;2022-11-20T04:40:25;78.05;;;32.65;;
25752;SDS011;13600;50.816;4.416;2022-11-20T04:42:51;80.85;;;33.92;;
25752;SDS011;13600;50.816;4.416;2022-11-20T04:45:16;83.65;;;33.92;;
25752;SDS011;13600;50.816;4.416;2022-11-20T04:47:42;74.53;;;33.15;;
25752;SDS011;13600;50.816;4.416;2022-11-20T04:50:08;70.72;;;32.28;;
25752;SDS011;13600;50.816;4.416;2022-11-20T04:52:34;75.55;;;32.85;;
25752;SDS011;13600;50.816;4.416;2022-11-20T04:54:59;82.47;;;34.75;;
25752;SDS011;13600;50.816;4.416;2022-11-20T04:57:25;89.70;;;37.42;;
25752;SDS011;13600;50.816;4.416;2022-11-20T04:59:51;85.93;;;35.30;;
25752;SDS011;13600;50.816;4.416;2022-11-20T05:02:16;88.90;;;36.55;;
25752;SDS011;13600;50.816;4.416;2022-11-20T05:04:42;96.53;;;37.10;;
25752;SDS011;13600;50.816;4.416;2022-11-20T05:07:08;95.93;;;36.40;;
25752;SDS011;13600;50.816;4.416;2022-11-20T05:09:33;93.00;;;36.38;;
25752;SDS011;13600;50.816;4.416;2022-11-20T05:11:59;98.18;;;37.45;;
25752;SDS011;13600;50.816;4.416;2022-11-20T05:14:25;95.38;;;37.22;;
25752;SDS011;13600;50.816;4.416;2022-11-20T05:16:50;94.72;;;35.38;;
25752;SDS011;13600;50.816;4.416;2022-11-20T05:19:16;91.72;;;36.85;;
25752;SDS011;13600;50.816;4.416;2022-11-20T05:21:42;94.05;;;37.17;;
25752;SDS011;13600;50.816;4.416;2022-11-20T05:24:08;84.50;;;36.58;;
25752;SDS011;13600;50.816;4.416;2022-11-20T05:26:33;88.90;;;36.45;;
25752;SDS011;13600;50.816;4.416;2022-11-20T05:28:59;87.97;;;36.10;;
25752;SDS011;13600;50.816;4.416;2022-11-20T05:31:25;96.07;;;36.67;;
25752;SDS011;13600;50.816;4.416;2022-11-20T05:33:50;84.32;;;35.72;;
25752;SDS011;13600;50.816;4.416;2022-11-20T05:36:16;87.53;;;36.20;;
25752;SDS011;13600;50.816;4.416;2022-11-20T05:38:43;93.40;;;37.42;;
25752;SDS011;13600;50.816;4.416;2022-11-20T05:41:10;93.53;;;35.13;;
25752;SDS011;13600;50.816;4.416;2022-11-20T05:43:40;94.40;;;36.00;;
25752;SDS011;13600;50.816;4.416;2022-11-20T05:46:08;93.72;;;36.03;;
25752;SDS011;13600;50.816;4.416;2022-11-20T05:48:35;99.78;;;36.22;;
25752;SDS011;13600;50.816;4.416;2022-11-20T05:51:02;93.53;;;36.35;;
25752;SDS011;13600;50.816;4.416;2022-11-20T05:53:30;102.35;;;38.08;;
25752;SDS011;13600;50.816;4.416;2022-11-20T05:55:58;102.28;;;37.25;;
25752;SDS011;13600;50.816;4.416;2022-11-20T05:58:25;109.28;;;38.55;;
25752;SDS011;13600;50.816;4.416;2022-11-20T06:00:51;105.30;;;38.40;;
25752;SDS011;13600;50.816;4.416;2022-11-20T06:03:17;106.63;;;37.80;;
25752;SDS011;13600;50.816;4.416;2022-11-20T06:05:42;110.10;;;39.58;;
25752;SDS011;13600;50.816;4.416;2022-11-20T06:08:08;110.00;;;38.05;;
25752;SDS011;13600;50.816;4.416;2022-11-20T06:10:34;108.35;;;38.13;;
25752;SDS011;13600;50.816;4.416;2022-11-20T06:12:59;108.65;;;40.05;;
25752;SDS011;13600;50.816;4.416;2022-11-20T06:15:25;112.20;;;38.45;;
25752;SDS011;13600;50.816;4.416;2022-11-20T06:17:54;113.68;;;38.80;;
25752;SDS011;13600;50.816;4.416;2022-11-20T06:20:20;119.95;;;39.70;;
25752;SDS011;13600;50.816;4.416;2022-11-20T06:22:47;127.93;;;39.85;;
25752;SDS011;13600;50.816;4.416;2022-11-20T06:25:13;129.50;;;39.90;;
25752;SDS011;13600;50.816;4.416;2022-11-20T06:27:39;126.80;;;40.38;;
25752;SDS011;13600;50.816;4.416;2022-11-20T06:30:05;124.95;;;39.60;;
25752;SDS011;13600;50.816;4.416;2022-11-20T06:32:31;116.82;;;39.42;;
25752;SDS011;13600;50.816;4.416;2022-11-20T06:34:57;132.60;;;41.25;;
25752;SDS011;13600;50.816;4.416;2022-11-20T06:37:26;124.63;;;40.17;;
25752;SDS011;13600;50.816;4.416;2022-11-20T06:39:51;126.05;;;40.20;;
25752;SDS011;13600;50.816;4.416;2022-11-20T06:42:18;134.43;;;41.42;;
25752;SDS011;13600;50.816;4.416;2022-11-20T06:44:44;126.28;;;41.22;;
25752;SDS011;13600;50.816;4.416;2022-11-20T06:47:10;126.78;;;40.00;;
25752;SDS011;13600;50.816;4.416;2022-11-20T06:49:36;120.22;;;38.22;;
25752;SDS011;13600;50.816;4.416;2022-11-20T06:52:03;121.47;;;40.38;;
25752;SDS011;13600;50.816;4.416;2022-11-20T06:54:29;118.28;;;39.00;;
25752;SDS011;13600;50.816;4.416;2022-11-20T06:56:55;117.25;;;40.40;;
25752;SDS011;13600;50.816;4.416;2022-11-20T06:59:21;116.07;;;40.40;;
25752;SDS011;13600;50.816;4.416;2022-11-20T07:01:46;113.53;;;39.53;;
25752;SDS011;13600;50.816;4.416;2022-11-20T07:04:12;118.68;;;40.10;;
25752;SDS011;13600;50.816;4.416;2022-11-20T07:06:38;125.35;;;40.05;;
25752;SDS011;13600;50.816;4.416;2022-11-20T07:09:03;124.18;;;40.05;;
25752;SDS011;13600;50.816;4.416;2022-11-20T07:11:29;117.68;;;39.40;;
25752;SDS011;13600;50.816;4.416;2022-11-20T07:13:56;125.00;;;40.60;;
25752;SDS011;13600;50.816;4.416;2022-11-20T07:16:22;130.63;;;40.50;;
25752;SDS011;13600;50.816;4.416;2022-11-20T07:18:47;123.35;;;40.63;;
25752;SDS011;13600;50.816;4.416;2022-11-20T07:21:13;120.10;;;41.13;;
25752;SDS011;13600;50.816;4.416;2022-11-20T07:23:40;121.32;;;39.50;;
25752;SDS011;13600;50.816;4.416;2022-11-20T07:26:06;116.40;;;39.28;;
25752;SDS011;13600;50.816;4.416;2022-11-20T07:28:33;122.00;;;40.83;;
25752;SDS011;13600;50.816;4.416;2022-11-20T07:30:59;110.72;;;37.10;;
25752;SDS011;13600;50.816;4.416;2022-11-20T07:33:25;117.50;;;40.58;;
25752;SDS011;13600;50.816;4.416;2022-11-20T07:35:50;115.55;;;39.53;;
25752;SDS011;13600;50.816;4.416;2022-11-20T07:38:16;116.63;;;39.88;;
25752;SDS011;13600;50.816;4.416;2022-11-20T07:40:41;115.22;;;39.40;;
25752;SDS011;13600;50.816;4.416;2022-11-20T07:43:07;113.93;;;38.10;;
25752;SDS011;13600;50.816;4.416;2022-11-20T07:45:33;107.85;;;38.00;;
25752;SDS011;13600;50.816;4.416;2022-11-20T07:47:59;107.55;;;37.65;;
25752;SDS011;13600;50.816;4.416;2022-11-20T07:50:25;106.30;;;38.28;;
25752;SDS011;13600;50.816;4.416;2022-11-20T07:52:51;104.05;;;37.47;;
25752;SDS011;13600;50.816;4.416;2022-11-20T07:55:17;103.68;;;37.03;;
25752;SDS011;13600;50.816;4.416;2022-11-20T07:57:43;105.65;;;37.22;;
25752;SDS011;13600;50.816;4.416;2022-11-20T08:00:09;106.40;;;37.35;;
25752;SDS011;13600;50.816;4.416;2022-11-20T08:02:41;102.85;;;36.50;;
25752;SDS011;13600;50.816;4.416;2022-11-20T08:05:10;96.90;;;35.83;;
25752;SDS011;13600;50.816;4.416;2022-11-20T08:07:37;108.68;;;37.10;;
25752;SDS011;13600;50.816;4.416;2022-11-20T08:10:03;105.25;;;37.25;;
25752;SDS011;13600;50.816;4.416;2022-11-20T08:12:30;103.60;;;37.38;;
25752;SDS011;13600;50.816;4.416;2022-11-20T08:17:39;102.57;;;35.20;;
25752;SDS011;13600;50.816;4.416;2022-11-20T08:20:05;104.97;;;37.22;;
25752;SDS011;13600;50.816;4.416;2022-11-20T08:22:31;100.75;;;37.70;;
25752;SDS011;13600;50.816;4.416;2022-11-20T08:24:57;99.43;;;36.08;;
25752;SDS011;13600;50.816;4.416;2022-11-20T08:27:22;99.03;;;35.90;;
25752;SDS011;13600;50.816;4.416;2022-11-20T08:29:48;107.45;;;37.30;;
25752;SDS011;13600;50.816;4.416;2022-11-20T08:32:14;96.10;;;35.15;;
25752;SDS011;13600;50.816;4.416;2022-11-20T08:34:39;100.97;;;35.42;;
25752;SDS011;13600;50.816;4.416;2022-11-20T08:37:05;111.28;;;36.50;;
25752;SDS011;13600;50.816;4.416;2022-11-20T08:39:31;103.40;;;36.25;;
25752;SDS011;13600;50.816;4.416;2022-11-20T08:41:56;110.45;;;36.50;;
25752;SDS011;13600;50.816;4.416;2022-11-20T08:44:22;101.60;;;35.72;;
25752;SDS011;13600;50.816;4.416;2022-11-20T08:46:48;110.60;;;35.72;;
25752;SDS011;13600;50.816;4.416;2022-11-20T08:49:13;100.97;;;35.13;;
25752;SDS011;13600;50.816;4.416;2022-11-20T08:51:40;100.47;;;34.67;;
25752;SDS011;13600;50.816;4.416;2022-11-20T08:54:06;102.85;;;34.33;;
25752;SDS011;13600;50.816;4.416;2022-11-20T08:56:33;94.57;;;35.03;;
25752;SDS011;13600;50.816;4.416;2022-11-20T08:59:00;109.50;;;35.47;;
25752;SDS011;13600;50.816;4.416;2022-11-20T09:01:26;99.25;;;34.97;;
25752;SDS011;13600;50.816;4.416;2022-11-20T09:03:52;111.80;;;37.10;;
25752;SDS011;13600;50.816;4.416;2022-11-20T09:06:19;101.40;;;34.47;;
25752;SDS011;13600;50.816;4.416;2022-11-20T09:08:45;94.68;;;33.53;;
25752;SDS011;13600;50.816;4.416;2022-11-20T09:11:11;90.00;;;33.15;;
25752;SDS011;13600;50.816;4.416;2022-11-20T09:13:36;87.18;;;33.67;;
25752;SDS011;13600;50.816;4.416;2022-11-20T09:16:04;81.60;;;32.33;;
25752;SDS011;13600;50.816;4.416;2022-11-20T09:18:31;84.97;;;32.47;;
25752;SDS011;13600;50.816;4.416;2022-11-20T09:20:58;83.22;;;32.55;;
25752;SDS011;13600;50.816;4.416;2022-11-20T09:23:24;76.43;;;31.67;;
25752;SDS011;13600;50.816;4.416;2022-11-20T09:25:51;72.63;;;29.85;;
25752;SDS011;13600;50.816;4.416;2022-11-20T09:28:17;78.30;;;30.10;;
25752;SDS011;13600;50.816;4.416;2022-11-20T09:30:44;59.83;;;27.45;;
25752;SDS011;13600;50.816;4.416;2022-11-20T09:33:10;66.03;;;27.15;;
25752;SDS011;13600;50.816;4.416;2022-11-20T09:35:35;69.32;;;30.27;;
25752;SDS011;13600;50.816;4.416;2022-11-20T09:38:05;64.65;;;28.23;;
25752;SDS011;13600;50.816;4.416;2022-11-20T09:40:31;59.13;;;25.42;;
25752;SDS011;13600;50.816;4.416;2022-11-20T09:43:02;56.95;;;24.35;;
25752;SDS011;13600;50.816;4.416;2022-11-20T09:45:39;51.53;;;23.25;;
25752;SDS011;13600;50.816;4.416;2022-11-20T09:56:29;41.33;;;19.93;;
25752;SDS011;13600;50.816;4.416;2022-11-20T09:58:57;45.58;;;19.25;;
25752;SDS011;13600;50.816;4.416;2022-11-20T10:01:26;40.05;;;19.23;;
25752;SDS011;13600;50.816;4.416;2022-11-20T10:04:01;38.65;;;18.20;;
25752;SDS011;13600;50.816;4.416;2022-11-20T10:09:31;33.00;;;16.52;;
25752;SDS011;13600;50.816;4.416;2022-11-20T10:12:21;37.05;;;15.45;;
25752;SDS011;13600;50.816;4.416;2022-11-20T10:17:29;34.75;;;15.90;;
25752;SDS011;13600;50.816;4.416;2022-11-20T10:23:21;31.05;;;14.45;;
25752;SDS011;13600;50.816;4.416;2022-11-20T10:26:21;28.77;;;13.85;;
25752;SDS011;13600;50.816;4.416;2022-11-20T10:31:33;21.08;;;10.70;;
25752;SDS011;13600;50.816;4.416;2022-11-20T10:34:06;22.73;;;10.77;;
25752;SDS011;13600;50.816;4.416;2022-11-20T10:37:02;20.52;;;9.40;;
25752;SDS011;13600;50.816;4.416;2022-11-20T10:42:17;17.08;;;8.73;;
25752;SDS011;13600;50.816;4.416;2022-11-20T10:47:56;16.50;;;6.53;;
25752;SDS011;13600;50.816;4.416;2022-11-20T10:50:43;16.17;;;6.55;;
25752;SDS011;13600;50.816;4.416;2022-11-20T10:53:31;12.32;;;5.50;;
25752;SDS011;13600;50.816;4.416;2022-11-20T11:01:52;12.88;;;5.07;;
25752;SDS011;13600;50.816;4.416;2022-11-20T11:04:29;12.50;;;4.30;;
25752;SDS011;13600;50.816;4.416;2022-11-20T11:07:13;9.68;;;4.38;;
25752;SDS011;13600;50.816;4.416;2022-11-20T11:09:52;12.70;;;3.95;;
25752;SDS011;13600;50.816;4.416;2022-11-20T11:12:20;8.40;;;3.70;;
25752;SDS011;13600;50.816;4.416;2022-11-20T11:14:48;10.23;;;3.63;;
25752;SDS011;13600;50.816;4.416;2022-11-20T11:17:22;12.25;;;3.88;;
25752;SDS011;13600;50.816;4.416;2022-11-20T11:24:53;13.05;;;4.40;;
25752;SDS011;13600;50.816;4.416;2022-11-20T11:27:19;10.15;;;4.03;;
25752;SDS011;13600;50.816;4.416;2022-11-20T11:29:45;10.70;;;4.00;;
25752;SDS011;13600;50.816;4.416;2022-11-20T11:32:12;9.65;;;4.00;;
25752;SDS011;13600;50.816;4.416;2022-11-20T11:34:40;9.80;;;3.58;;
25752;SDS011;13600;50.816;4.416;2022-11-20T11:37:10;33.25;;;11.02;;
25752;SDS011;13600;50.816;4.416;2022-11-20T11:39:42;10.20;;;3.63;;
25752;SDS011;13600;50.816;4.416;2022-11-20T11:42:11;12.13;;;3.42;;
25752;SDS011;13600;50.816;4.416;2022-11-20T11:44:45;9.55;;;3.28;;
25752;SDS011;13600;50.816;4.416;2022-11-20T11:52:43;12.02;;;4.22;;
25752;SDS011;13600;50.816;4.416;2022-11-20T11:59:02;22.42;;;11.52;;
25752;SDS011;13600;50.816;4.416;2022-11-20T12:04:11;13.98;;;3.90;;
25752;SDS011;13600;50.816;4.416;2022-11-20T12:06:47;8.93;;;3.40;;
25752;SDS011;13600;50.816;4.416;2022-11-20T12:09:18;14.40;;;3.33;;
25752;SDS011;13600;50.816;4.416;2022-11-20T12:11:55;8.52;;;3.72;;
25752;SDS011;13600;50.816;4.416;2022-11-20T12:14:34;7.38;;;3.75;;
25752;SDS011;13600;50.816;4.416;2022-11-20T12:17:15;14.55;;;3.45;;
25752;SDS011;13600;50.816;4.416;2022-11-20T12:19:42;9.65;;;3.55;;
25752;SDS011;13600;50.816;4.416;2022-11-20T12:24:45;13.00;;;4.38;;
25752;SDS011;13600;50.816;4.416;2022-11-20T12:32:40;12.25;;;4.10;;
25752;SDS011;13600;50.816;4.416;2022-11-20T12:35:38;12.10;;;4.03;;
25752;SDS011;13600;50.816;4.416;2022-11-20T12:47:39;12.57;;;4.40;;
25752;SDS011;13600;50.816;4.416;2022-11-20T13:07:05;12.25;;;4.88;;
25752;SDS011;13600;50.816;4.416;2022-11-20T13:09:35;15.60;;;5.53;;
25752;SDS011;13600;50.816;4.416;2022-11-20T13:14:45;11.75;;;4.65;;
25752;SDS011;13600;50.816;4.416;2022-11-20T13:17:36;10.80;;;4.57;;
25752;SDS011;13600;50.816;4.416;2022-11-20T13:20:15;16.37;;;5.80;;
25752;SDS011;13600;50.816;4.416;2022-11-20T13:22:46;18.83;;;6.13;;
25752;SDS011;13600;50.816;4.416;2022-11-20T13:25:26;13.63;;;5.20;;
25752;SDS011;13600;50.816;4.416;2022-11-20T13:27:57;14.98;;;5.70;;
25752;SDS011;13600;50.816;4.416;2022-11-20T13:30:25;11.23;;;4.90;;
25752;SDS011;13600;50.816;4.416;2022-11-20T13:40:31;9.18;;;4.43;;
25752;SDS011;13600;50.816;4.416;2022-11-20T13:45:33;9.50;;;4.05;;
25752;SDS011;13600;50.816;4.416;2022-11-20T13:48:02;9.32;;;4.10;;
25752;SDS011;13600;50.816;4.416;2022-11-20T13:53:08;13.70;;;7.82;;
25752;SDS011;13600;50.816;4.416;2022-11-20T13:56:00;9.32;;;4.60;;
25752;SDS011;13600;50.816;4.416;2022-11-20T14:01:24;11.88;;;4.18;;
25752;SDS011;13600;50.816;4.416;2022-11-20T14:03:56;11.00;;;5.57;;
25752;SDS011;13600;50.816;4.416;2022-11-20T14:06:30;7.65;;;3.42;;
25752;SDS011;13600;50.816;4.416;2022-11-20T14:08:59;10.93;;;4.60;;
25752;SDS011;13600;50.816;4.416;2022-11-20T14:11:28;5.10;;;3.40;;
25752;SDS011;13600;50.816;4.416;2022-11-20T14:16:29;6.90;;;3.05;;
25752;SDS011;13600;50.816;4.416;2022-11-20T14:19:22;6.97;;;3.13;;
25752;SDS011;13600;50.816;4.416;2022-11-20T14:21:54;8.25;;;2.70;;
25752;SDS011;13600;50.816;4.416;2022-11-20T14:24:32;5.50;;;2.92;;
25752;SDS011;13600;50.816;4.416;2022-11-20T14:26:58;3.80;;;2.72;;
25752;SDS011;13600;50.816;4.416;2022-11-20T14:29:27;7.82;;;2.88;;
25752;SDS011;13600;50.816;4.416;2022-11-20T14:31:57;6.43;;;2.92;;
25752;SDS011;13600;50.816;4.416;2022-11-20T14:34:27;5.32;;;2.90;;
25752;SDS011;13600;50.816;4.416;2022-11-20T14:36:59;4.65;;;2.67;;
25752;SDS011;13600;50.816;4.416;2022-11-20T14:39:32;5.72;;;3.38;;
25752;SDS011;13600;50.816;4.416;2022-11-20T14:42:23;4.05;;;2.70;;
25752;SDS011;13600;50.816;4.416;2022-11-20T14:44:50;5.75;;;3.05;;
25752;SDS011;13600;50.816;4.416;2022-11-20T14:47:20;4.53;;;2.83;;
25752;SDS011;13600;50.816;4.416;2022-11-20T14:49:48;6.75;;;3.47;;
25752;SDS011;13600;50.816;4.416;2022-11-20T14:52:21;5.60;;;3.55;;
25752;SDS011;13600;50.816;4.416;2022-11-20T14:54:57;6.13;;;3.20;;
25752;SDS011;13600;50.816;4.416;2022-11-20T14:57:27;5.88;;;3.67;;
25752;SDS011;13600;50.816;4.416;2022-11-20T15:00:04;5.93;;;3.75;;
25752;SDS011;13600;50.816;4.416;2022-11-20T15:02:43;6.97;;;3.92;;
25752;SDS011;13600;50.816;4.416;2022-11-20T15:05:13;10.75;;;4.60;;
25752;SDS011;13600;50.816;4.416;2022-11-20T15:07:44;10.18;;;5.32;;
25752;SDS011;13600;50.816;4.416;2022-11-20T15:10:22;8.77;;;5.03;;
25752;SDS011;13600;50.816;4.416;2022-11-20T15:12:53;13.15;;;5.60;;
25752;SDS011;13600;50.816;4.416;2022-11-20T15:15:32;11.93;;;5.65;;
25752;SDS011;13600;50.816;4.416;2022-11-20T15:18:01;9.85;;;6.50;;
25752;SDS011;13600;50.816;4.416;2022-11-20T15:20:29;15.80;;;6.50;;
25752;SDS011;13600;50.816;4.416;2022-11-20T15:22:58;9.52;;;5.85;;
25752;SDS011;13600;50.816;4.416;2022-11-20T15:25:23;11.43;;;5.85;;
25752;SDS011;13600;50.816;4.416;2022-11-20T15:27:51;6.90;;;4.75;;
25752;SDS011;13600;50.816;4.416;2022-11-20T15:30:20;9.57;;;5.07;;
25752;SDS011;13600;50.816;4.416;2022-11-20T15:32:47;13.63;;;5.00;;
25752;SDS011;13600;50.816;4.416;2022-11-20T15:35:13;9.50;;;4.95;;
25752;SDS011;13600;50.816;4.416;2022-11-20T15:37:39;13.95;;;5.30;;
25752;SDS011;13600;50.816;4.416;2022-11-20T15:40:06;9.73;;;4.90;;
25752;SDS011;13600;50.816;4.416;2022-11-20T15:42:33;10.77;;;5.50;;
25752;SDS011;13600;50.816;4.416;2022-11-20T15:44:59;14.43;;;5.82;;
25752;SDS011;13600;50.816;4.416;2022-11-20T15:47:27;13.30;;;5.75;;
25752;SDS011;13600;50.816;4.416;2022-11-20T15:49:55;13.45;;;5.53;;
25752;SDS011;13600;50.816;4.416;2022-11-20T15:52:21;11.00;;;5.50;;
25752;SDS011;13600;50.816;4.416;2022-11-20T15:54:46;17.60;;;5.32;;
25752;SDS011;13600;50.816;4.416;2022-11-20T15:57:12;12.80;;;6.07;;
25752;SDS011;13600;50.816;4.416;2022-11-20T15:59:38;14.40;;;6.35;;
25752;SDS011;13600;50.816;4.416;2022-11-20T16:02:12;15.02;;;6.05;;
25752;SDS011;13600;50.816;4.416;2022-11-20T16:04:39;10.50;;;5.33;;
25752;SDS011;13600;50.816;4.416;2022-11-20T16:07:05;17.13;;;5.55;;
25752;SDS011;13600;50.816;4.416;2022-11-20T16:09:32;11.32;;;4.68;;
25752;SDS011;13600;50.816;4.416;2022-11-20T16:11:58;17.08;;;5.70;;
25752;SDS011;13600;50.816;4.416;2022-11-20T16:14:24;19.55;;;5.68;;
25752;SDS011;13600;50.816;4.416;2022-11-20T16:17:12;14.98;;;4.60;;
25752;SDS011;13600;50.816;4.416;2022-11-20T16:19:38;18.80;;;5.50;;
25752;SDS011;13600;50.816;4.416;2022-11-20T16:22:04;20.80;;;5.55;;
25752;SDS011;13600;50.816;4.416;2022-11-20T16:24:29;22.17;;;5.15;;
25752;SDS011;13600;50.816;4.416;2022-11-20T16:26:55;19.05;;;5.38;;
25752;SDS011;13600;50.816;4.416;2022-11-20T16:29:21;20.08;;;4.95;;